Time;durP1;ratioP1;P1;durP2;ratioP2;P2;SDS_P1;SDS_P2;PMS_P1;PMS_P2;Temp;Humidity;BMP_temperature;BMP_pressure;BME280_temperature;BME280_humidity;BME280_pressure;Samples;Min_cycle;Max_cycle;Signal;HPM_P1;HPM_P2
2021/01/09 00:01:49;;;;;;;;;;;;;;;;;;;;;
2021/01/09 00:04:26;;;;;;;;;;;;;;;8.60;51.42;101351.75;4859000;29;20018;-81
2021/01/09 00:07:03;;;;;;;;;;;;;;;8.58;51.54;101351.75;4859000;29;19932;-81
2021/01/09 00:10:12;;;;;;;;;;;;;;;8.56;52.03;101350.91;4859692;29;22192;-82
2021/01/09 00:13:06;;;;;;;;;;;;;;;8.54;51.73;101355.31;4877043;29;19928;-82
2021/01/09 00:15:58;;;;;;;;;;;;;;;8.55;52.08;101358.81;4863841;29;20830;-82
2021/01/09 00:28:30;;;;;;;;;;;;;;;8.41;52.08;101366.84;4879639;29;19980;-81
2021/01/09 00:31:15;;;;;;;;;;;;;;;8.41;52.62;101375.63;4870091;29;19932;-82
2021/01/09 00:34:08;;;;;;;;;;;;;;;8.38;52.87;101378.28;4854516;29;19944;-81
2021/01/09 00:36:45;;;;;;;;;;;;;;;8.36;52.17;101372.13;4865884;29;19932;-81
2021/01/09 00:39:22;;;;;;;;;;;;;;;8.36;52.28;101376.56;4866764;29;19936;-81
2021/01/09 00:44:47;;;;;;;;;;;;;;;8.31;52.44;101374.81;4856638;29;19928;-81
2021/01/09 00:47:14;;;;;;;;;;;;;;;8.31;52.28;101374.81;4863738;29;20042;-81
2021/01/09 00:49:43;;;;;;;;;;;;;;;8.30;52.53;101378.34;4882599;29;19927;-81
2021/01/09 00:55:59;;;;;;;;;;;;;;;8.27;52.88;101382.75;4870215;29;19931;-81
2021/01/09 00:58:27;;;;;;;;;;;;;;;8.25;52.67;101381.91;4868800;29;19932;-81
2021/01/09 01:00:55;;;;;;;;;;;;;;;8.23;52.61;101381.03;4866253;29;19957;-82
2021/01/09 01:09:56;;;;;;;;;;;;;;;8.52;50.89;101396.66;4862858;29;19936;-81
2021/01/09 01:12:23;;;;;;;;;;;;;;;8.49;51.70;101399.31;4884318;29;19939;-81
2021/01/09 01:14:50;;;;;;;;;;;;;;;8.47;51.83;101396.69;4865301;29;20410;-81
2021/01/09 01:17:25;;;;;;;;;;;;;;;8.56;50.74;101405.41;4875438;29;19942;-81
2021/01/09 01:20:24;;;;;;;;;;;;;;;8.62;49.01;101400.94;4862767;29;19944;-80
2021/01/09 01:23:15;;;;;;;;;;;;;;;8.72;47.86;101408.78;4880913;29;19967;-80
2021/01/09 01:26:21;;;;;;;;;;;;;;;8.78;47.20;101417.50;4845525;29;19943;-81
2021/01/09 01:28:47;;;;;;;;;;;;;;;8.79;46.50;101416.63;4866916;29;19986;-80
2021/01/09 01:31:14;;;;;;;;;;;;;;;8.83;45.63;101412.22;4861837;29;19932;-80
2021/01/09 01:33:42;;;;;;;;;;;;;;;8.86;45.17;101408.66;4849044;29;19939;-79
2021/01/09 01:36:26;;;;;;;;;;;;;;;8.91;44.31;101412.13;4865828;29;19942;-81
2021/01/09 01:46:13;;;;;;;;;;;;;;;8.59;44.79;101426.50;4829795;29;19932;-82
2021/01/09 01:49:23;;;;;;;;;;;;;;;8.51;45.95;101426.56;4881383;29;19936;-81
2021/01/09 01:51:59;;;;;;;;;;;;;;;8.44;46.76;101430.97;4872869;29;19928;-82
2021/01/09 01:58:56;;;;;;;;;;;;;;;8.45;47.27;101437.13;4842228;29;20457;-81
2021/01/09 02:02:29;;;;;;;;;;;;;;;8.50;47.78;101438.00;4859843;29;20863;-81
2021/01/09 02:05:23;;;;;;;;;;;;;;;8.51;47.73;101441.50;4843633;29;19950;-81
2021/01/09 02:07:53;;;;;;;;;;;;;;;8.51;48.24;101442.38;4864149;29;19936;-80
2021/01/09 02:10:31;;;;;;;;;;;;;;;8.54;48.82;101444.13;4863143;29;19971;-81
2021/01/09 02:13:25;;;;;;;;;;;;;;;8.58;48.93;101440.56;4847752;29;19931;-79
2021/01/09 02:15:52;;;;;;;;;;;;;;;8.58;48.75;101435.28;4845669;29;19939;-80
2021/01/09 02:18:20;;;;;;;;;;;;;;;8.57;49.19;101442.31;4846262;29;19932;-80
2021/01/09 02:20:50;;;;;;;;;;;;;;;8.60;49.36;101446.69;4863337;29;19991;-79
2021/01/09 02:23:31;;;;;;;;;;;;;;;8.60;49.15;101447.59;4850931;29;20114;-81
2021/01/09 02:26:31;;;;;;;;;;;;;;;8.61;49.81;101454.59;4854739;29;19936;-81
2021/01/09 02:36:18;;;;;;;;;;;;;;;8.61;49.57;101457.22;4781600;29;19967;-81
2021/01/09 02:39:42;;;;;;;;;;;;;;;8.62;50.43;101453.69;4810159;29;20517;-81
2021/01/09 02:42:31;;;;;;;;;;;;;;;8.61;50.13;101449.31;4802419;29;20337;-81
2021/01/09 02:45:44;;;;;;;;;;;;;;;;;;;;;
2021/01/09 02:49:37;;;;;;;;;;;;;;;;;;;;;
2021/01/09 02:52:52;;;;;;;;;;;;;;;8.56;50.29;101463.44;4806099;29;19933;-81
2021/01/09 02:55:37;;;;;;;;;;;;;;;8.54;50.64;101455.53;4803305;29;19932;-80
2021/01/09 02:58:07;;;;;;;;;;;;;;;8.56;51.07;101464.31;4786914;29;19991;-80
2021/01/09 03:00:40;;;;;;;;;;;;;;;8.55;50.64;101461.66;4791677;29;20032;-81
2021/01/09 03:03:16;;;;;;;;;;;;;;;8.52;51.01;101472.25;4834621;29;19963;-80
2021/01/09 03:05:55;;;;;;;;;;;;;;;8.50;50.87;101471.38;4856966;29;19938;-79
2021/01/09 03:09:13;;;;;;;;;;;;;;;;;;;;;
2021/01/09 03:11:53;;;;;;;;;;;;;;;8.49;50.99;101467.88;4854098;29;20004;-80
2021/01/09 03:14:23;;;;;;;;;;;;;;;8.46;51.47;101473.19;4864108;29;19928;-80
2021/01/09 03:16:56;;;;;;;;;;;;;;;8.45;51.59;101476.66;4861315;29;20265;-80
2021/01/09 03:19:42;;;;;;;;;;;;;;;8.44;50.97;101482.81;4858881;29;19943;-80
2021/01/09 03:22:42;;;;;;;;;;;;;;;;;;;;;
2021/01/09 03:25:33;;;;;;;;;;;;;;;8.41;51.35;101475.81;4851487;29;19936;-80
2021/01/09 03:28:37;;;;;;;;;;;;;;;8.42;51.49;101484.59;4861420;29;19932;-80
2021/01/09 03:31:35;;;;;;;;;;;;;;;8.37;52.18;101478.50;4857089;29;20165;-80
2021/01/09 03:34:19;;;;;;;;;;;;;;;8.34;52.20;101489.03;4878521;29;19932;-81
2021/01/09 03:37:15;;;;;;;;;;;;;;;8.36;52.02;101487.28;4862761;29;20164;-80
2021/01/09 03:43:41;;;;;;;;;;;;;;;8.32;52.47;101486.41;4859062;29;20404;-81
2021/01/09 03:49:46;;;;;;;;;;;;;;;8.26;52.25;101494.34;4855260;29;19942;-81
2021/01/09 03:52:58;;;;;;;;;;;;;;;;;;;;;
2021/01/09 03:59:34;;;;;;;;;;;;;;;;;;;;;
2021/01/09 04:02:44;;;;;;;;;;;;;;;8.21;52.53;101501.41;4862546;29;20557;-80
2021/01/09 04:05:21;;;;;;;;;;;;;;;8.19;52.79;101503.19;4865111;29;20051;-80
2021/01/09 04:12:11;;;;;;;;;;;;;;;8.16;52.51;101504.09;4865784;29;20390;-80
2021/01/09 04:14:39;;;;;;;;;;;;;;;8.14;52.83;101509.38;4869586;29;19935;-81
2021/01/09 04:17:29;;;;;;;;;;;;;;;8.13;52.99;101507.59;4862627;29;20057;-80
2021/01/09 04:20:25;;;;;;;;;;;;;;;8.11;52.83;101517.28;4863947;29;19935;-80
2021/01/09 04:31:26;;;;;;;;;;;;;;;8.70;47.21;101516.09;4836144;29;20019;-80
2021/01/09 04:38:03;;;;;;;;;;;;;;;8.84;45.72;101511.59;5084000;27;20292;-82
2021/01/09 04:40:36;;;;;;;;;;;;;;;8.93;44.60;101513.25;5089407;28;20368;-82
2021/01/09 04:43:03;;;;;;;;;;;;;;;9.02;44.26;101514.94;5087881;28;20414;-82
2021/01/09 04:45:31;;;;;;;;;;;;;;;9.06;43.68;101524.59;5087928;28;20495;-81
2021/01/09 04:47:59;;;;;;;;;;;;;;;8.89;44.43;101516.81;5086715;28;19999;-81
2021/01/09 04:50:26;;;;;;;;;;;;;;;8.77;45.35;101518.69;5085803;28;20354;-81
2021/01/09 04:52:53;;;;;;;;;;;;;;;8.76;45.92;101522.19;5102121;27;20377;-81
2021/01/09 04:55:23;;;;;;;;;;;;;;;8.74;46.49;101526.59;5090165;28;19924;-81
2021/01/09 04:57:50;;;;;;;;;;;;;;;8.77;46.84;101525.69;5088888;28;19932;-81
2021/01/09 05:00:18;;;;;;;;;;;;;;;8.74;47.10;101526.59;5088921;28;19934;-81
2021/01/09 05:02:45;;;;;;;;;;;;;;;8.77;47.15;101536.25;5086086;28;19931;-82
2021/01/09 05:05:12;;;;;;;;;;;;;;;8.80;47.41;101539.75;5079559;27;20378;-82
2021/01/09 05:07:41;;;;;;;;;;;;;;;8.84;47.62;101548.53;5097941;27;19928;-80
2021/01/09 05:10:11;;;;;;;;;;;;;;;8.85;48.02;101544.09;5086599;28;20011;-82
2021/01/09 05:12:40;;;;;;;;;;;;;;;8.84;48.11;101552.91;5085668;28;19932;-80
2021/01/09 05:15:09;;;;;;;;;;;;;;;8.84;48.30;101559.09;5092297;28;19931;-81
2021/01/09 05:17:38;;;;;;;;;;;;;;;8.83;48.74;101572.28;5086514;28;19939;-80
2021/01/09 05:20:12;;;;;;;;;;;;;;;8.84;48.59;101564.34;5080028;28;19932;-82
2021/01/09 05:22:39;;;;;;;;;;;;;;;8.83;49.08;101583.69;5084462;28;19939;-81
2021/01/09 05:25:07;;;;;;;;;;;;;;;8.85;49.04;101576.66;5084218;28;19928;-81
2021/01/09 05:27:35;;;;;;;;;;;;;;;8.86;48.75;101575.75;5084343;28;19931;-81
2021/01/09 05:30:11;;;;;;;;;;;;;;;8.85;49.23;101578.41;5084509;28;20471;-81
2021/01/09 05:32:38;;;;;;;;;;;;;;;8.84;49.83;101576.66;5084264;28;19931;-80
2021/01/09 05:35:12;;;;;;;;;;;;;;;8.83;49.91;101581.06;5079589;28;19924;-82
2021/01/09 05:37:39;;;;;;;;;;;;;;;8.82;49.56;101584.59;5084090;28;19928;-82
2021/01/09 05:40:09;;;;;;;;;;;;;;;8.83;50.06;101590.75;5083674;28;20020;-81
2021/01/09 05:42:36;;;;;;;;;;;;;;;8.79;49.74;101588.13;5088910;28;20316;-81
2021/01/09 05:45:12;;;;;;;;;;;;;;;8.79;50.00;101592.53;5090813;28;19931;-82
2021/01/09 05:47:39;;;;;;;;;;;;;;;8.76;49.80;101593.44;5086821;28;19930;-80
2021/01/09 05:50:11;;;;;;;;;;;;;;;8.73;50.27;101596.09;5077331;28;20392;-82
2021/01/09 05:52:39;;;;;;;;;;;;;;;8.74;50.31;101596.97;5071401;28;19928;-81
2021/01/09 05:55:06;;;;;;;;;;;;;;;8.72;50.69;101602.25;5068713;28;19932;-82
2021/01/09 05:57:34;;;;;;;;;;;;;;;8.69;50.71;101596.97;5069974;28;19935;-82
2021/01/09 06:00:03;;;;;;;;;;;;;;;8.68;50.30;101603.16;5069264;28;19975;-81
2021/01/09 06:02:47;;;;;;;;;;;;;;;8.65;51.14;101600.50;5058824;28;19938;-81
2021/01/09 06:05:15;;;;;;;;;;;;;;;8.63;51.06;101599.66;5064469;28;20082;-81
2021/01/09 06:07:47;;;;;;;;;;;;;;;8.62;50.72;101611.09;5065335;28;20104;-81
2021/01/09 06:10:17;;;;;;;;;;;;;;;8.56;51.23;101603.22;5068737;28;19928;-81
2021/01/09 06:12:50;;;;;;;;;;;;;;;8.58;50.78;101614.63;5071149;28;19932;-81
2021/01/09 06:15:23;;;;;;;;;;;;;;;8.54;51.18;101618.19;5068955;28;19971;-82
2021/01/09 06:17:52;;;;;;;;;;;;;;;8.51;51.21;101615.53;5062043;28;19958;-82
2021/01/09 06:20:19;;;;;;;;;;;;;;;8.47;51.04;101623.47;5065387;28;20107;-82
2021/01/09 06:22:46;;;;;;;;;;;;;;;8.45;51.27;101614.69;5071782;28;19932;-82
2021/01/09 06:25:14;;;;;;;;;;;;;;;8.43;51.19;101621.72;5075050;28;19951;-80
2021/01/09 06:27:47;;;;;;;;;;;;;;;8.40;51.50;101631.38;5067286;28;19936;-82
2021/01/09 06:30:15;;;;;;;;;;;;;;;8.37;51.91;101632.28;5065239;28;19928;-81
2021/01/09 06:32:42;;;;;;;;;;;;;;;8.34;51.87;101623.50;5065158;28;19928;-81
2021/01/09 06:35:12;;;;;;;;;;;;;;;8.31;51.49;101629.66;5067776;28;19933;-81
2021/01/09 06:37:39;;;;;;;;;;;;;;;8.30;51.98;101628.78;5070037;28;20379;-80
2021/01/09 06:40:08;;;;;;;;;;;;;;;8.25;51.58;101632.34;5072697;28;20050;-81
2021/01/09 06:42:38;;;;;;;;;;;;;;;8.25;51.67;101630.56;5069867;28;19928;-81
2021/01/09 06:45:12;;;;;;;;;;;;;;;8.23;52.35;101639.34;5061919;28;19938;-82
2021/01/09 06:47:39;;;;;;;;;;;;;;;8.20;52.36;101636.75;5063955;28;19954;-80
2021/01/09 06:50:27;;;;;;;;;;;;;;;8.18;52.42;101643.75;5067551;28;19932;-81
2021/01/09 06:52:59;;;;;;;;;;;;;;;8.16;52.20;101649.03;5069791;28;19939;-81
2021/01/09 06:55:54;;;;;;;;;;;;;;;8.16;52.33;101649.03;5068774;28;19989;-81
2021/01/09 06:58:28;;;;;;;;;;;;;;;8.11;52.51;101646.41;5050070;28;19993;-81
2021/01/09 07:01:11;;;;;;;;;;;;;;;8.10;52.07;101656.97;5060889;28;19932;-80
2021/01/09 07:03:44;;;;;;;;;;;;;;;8.07;52.01;101652.56;5063782;28;19928;-81
2021/01/09 07:06:11;;;;;;;;;;;;;;;8.05;52.51;101662.25;5065279;28;19959;-81
2021/01/09 07:08:40;;;;;;;;;;;;;;;8.08;52.38;101658.75;5070594;28;20731;-79
2021/01/09 07:11:12;;;;;;;;;;;;;;;8.08;52.43;101659.59;5067424;28;19924;-81
2021/01/09 07:13:39;;;;;;;;;;;;;;;8.09;52.01;101666.63;5061313;28;20470;-81
2021/01/09 07:16:07;;;;;;;;;;;;;;;8.10;52.39;101665.75;5062501;28;19927;-80
2021/01/09 07:18:38;;;;;;;;;;;;;;;8.17;52.41;101668.34;5071034;28;19937;-80
2021/01/09 07:21:08;;;;;;;;;;;;;;;8.18;51.98;101671.03;5067585;28;19939;-81
2021/01/09 07:23:38;;;;;;;;;;;;;;;8.21;52.05;101663.09;5067519;28;19971;-79
2021/01/09 07:26:08;;;;;;;;;;;;;;;8.27;51.59;101670.09;5072225;28;19928;-79
2021/01/09 07:28:36;;;;;;;;;;;;;;;8.29;51.82;101677.13;5059185;28;19928;-80
2021/01/09 07:31:07;;;;;;;;;;;;;;;8.33;51.84;101677.13;5066378;28;20022;-80
2021/01/09 07:33:35;;;;;;;;;;;;;;;8.38;51.89;101676.22;5070764;28;20483;-80
2021/01/09 07:36:02;;;;;;;;;;;;;;;8.42;51.69;101683.22;5068220;28;19932;-80
2021/01/09 07:38:31;;;;;;;;;;;;;;;8.47;51.90;101685.91;5070317;28;20557;-80
2021/01/09 07:41:00;;;;;;;;;;;;;;;8.49;51.82;101683.25;5068801;28;19930;-80
2021/01/09 07:43:36;;;;;;;;;;;;;;;8.50;51.62;101682.34;5066705;28;20117;-80
2021/01/09 07:46:21;;;;;;;;;;;;;;;8.52;51.54;101691.13;5066818;28;20377;-80
2021/01/09 07:48:48;;;;;;;;;;;;;;;8.52;51.36;101692.00;5072118;28;20428;-79
2021/01/09 07:51:16;;;;;;;;;;;;;;;8.54;51.29;101692.03;5067222;28;19939;-79
2021/01/09 07:53:44;;;;;;;;;;;;;;;8.56;52.04;101704.31;5067840;28;20401;-80
2021/01/09 07:56:11;;;;;;;;;;;;;;;8.56;51.65;101709.59;5067177;28;20334;-77
2021/01/09 07:58:45;;;;;;;;;;;;;;;8.57;51.88;101705.19;5064996;28;19928;-80
2021/01/09 08:01:15;;;;;;;;;;;;;;;8.62;52.07;101706.06;5068750;28;19932;-78
2021/01/09 08:03:48;;;;;;;;;;;;;;;8.60;51.54;101711.34;5066786;28;19932;-79
2021/01/09 08:06:15;;;;;;;;;;;;;;;8.63;51.44;101710.44;5077273;28;19928;-78
2021/01/09 08:08:42;;;;;;;;;;;;;;;8.64;51.23;101710.44;5069663;28;20410;-79
2021/01/09 08:11:10;;;;;;;;;;;;;;;8.69;51.92;101717.44;5064424;28;20090;-80
2021/01/09 08:13:36;;;;;;;;;;;;;;;8.84;51.45;101719.13;5063563;28;19928;-80
2021/01/09 08:16:10;;;;;;;;;;;;;;;8.88;51.42;101716.50;5069851;28;19939;-81
2021/01/09 08:18:37;;;;;;;;;;;;;;;8.92;51.26;101710.31;5067839;28;19950;-80
2021/01/09 08:21:04;;;;;;;;;;;;;;;9.05;49.98;101715.50;5069614;28;20321;-80
2021/01/09 08:23:32;;;;;;;;;;;;;;;9.18;49.46;101721.59;5065602;28;19939;-82
2021/01/09 08:26:12;;;;;;;;;;;;;;;9.29;47.56;101714.50;5063169;28;20014;-79
2021/01/09 08:28:39;;;;;;;;;;;;;;;9.41;46.56;101718.81;5064765;28;20032;-80
2021/01/09 08:31:07;;;;;;;;;;;;;;;9.53;45.92;101715.22;5075514;28;19924;-82
2021/01/09 08:33:36;;;;;;;;;;;;;;;9.62;44.60;101713.34;5066874;28;19924;-82
2021/01/09 08:36:06;;;;;;;;;;;;;;;9.71;43.73;101712.41;5065262;28;20819;-81
2021/01/09 08:38:33;;;;;;;;;;;;;;;9.80;43.25;101717.63;5064165;28;20217;-82
2021/01/09 08:41:03;;;;;;;;;;;;;;;9.88;42.81;101720.19;5066742;28;19928;-83
2021/01/09 08:43:30;;;;;;;;;;;;;;;9.92;42.03;101721.91;5066030;28;19932;-79
2021/01/09 08:45:57;;;;;;;;;;;;;;;9.96;42.54;101728.06;5075102;28;20512;-82
2021/01/09 09:04:18;;;;;;;;;;;;;;;10.66;43.10;101748.53;5462129;23;20217;-83
2021/01/09 09:07:05;;;;;;;;;;;;;;;10.80;42.66;101749.25;4974864;28;19933;-82
2021/01/09 09:09:44;;;;;;;;;;;;;;;10.89;42.79;101754.41;4955943;28;19940;-84
2021/01/09 09:12:47;;;;;;;;;;;;;;;10.98;43.05;101771.06;4959296;28;19930;-83
2021/01/09 09:22:43;;;;;;;;;;;;;;;11.37;42.93;101764.38;4917939;28;20255;-85
2021/01/09 09:29:39;;;;;;;;;;;;;;;11.66;42.92;101759.53;4968637;28;19948;-83
2021/01/09 09:40:39;;;;;;;;;;;;;;;13.66;38.65;101733.47;4935929;28;20008;-84
2021/01/09 09:43:25;;;;;;;;;;;;;;;14.59;36.77;101731.91;4962135;28;19934;-83
2021/01/09 09:46:08;;;;;;;;;;;;;;;13.88;38.25;101732.91;4984029;28;19988;-80
2021/01/09 09:48:50;;;;;;;;;;;;;;;13.44;40.07;101738.44;4977579;28;20436;-84
2021/01/09 09:54:48;;;;;;;;;;;;;;;13.00;41.20;101741.16;4963385;28;20032;-86
2021/01/09 09:57:55;;;;;;;;;;;;;;;13.13;40.89;101739.09;4936798;28;19996;-85
2021/01/09 10:00:42;;;;;;;;;;;;;;;13.02;41.27;101744.63;4948149;28;19934;-85
2021/01/09 10:07:11;;;;;;;;;;;;;;;12.84;42.12;101735.28;4910536;29;20043;-84
2021/01/09 10:09:51;;;;;;;;;;;;;;;13.11;41.58;101735.59;4908759;29;22067;-84
2021/01/09 10:31:30;;;;;;;;;;;;;;;12.65;41.80;101749.84;5532674;23;20478;-81
2021/01/09 10:33:57;;;;;;;;;;;;;;;12.06;40.71;101748.31;4968375;28;19929;-80
2021/01/09 10:36:24;;;;;;;;;;;;;;;12.11;39.91;101757.91;4982406;28;20413;-82
2021/01/09 10:38:51;;;;;;;;;;;;;;;12.63;38.32;101749.88;4991109;28;19949;-81
2021/01/09 10:41:18;;;;;;;;;;;;;;;12.85;37.31;101752.09;4994320;28;20415;-80
2021/01/09 10:43:45;;;;;;;;;;;;;;;12.59;37.56;101753.50;4968107;28;20508;-81
2021/01/09 10:46:17;;;;;;;;;;;;;;;12.56;37.50;101758.88;4968723;28;20660;-81
2021/01/09 10:48:45;;;;;;;;;;;;;;;12.00;38.56;101767.81;4965025;28;20383;-81
2021/01/09 10:51:16;;;;;;;;;;;;;;;10.96;41.02;101772.00;4962272;28;20171;-80
2021/01/09 10:53:43;;;;;;;;;;;;;;;10.49;42.38;101769.88;4972768;28;19930;-80
2021/01/09 10:56:10;;;;;;;;;;;;;;;10.67;41.97;101771.47;4971530;28;19983;-80
2021/01/09 10:58:37;;;;;;;;;;;;;;;11.38;40.06;101768.75;4962379;28;19936;-81
2021/01/09 11:01:03;;;;;;;;;;;;;;;10.79;41.40;101768.66;4965984;28;19933;-81
2021/01/09 11:03:30;;;;;;;;;;;;;;;10.24;42.46;101762.16;4965510;28;20044;-81
2021/01/09 11:05:58;;;;;;;;;;;;;;;10.27;42.67;101760.38;4963535;28;20453;-80
2021/01/09 11:08:25;;;;;;;;;;;;;;;10.27;42.80;101759.50;4969343;28;20050;-80
2021/01/09 11:10:52;;;;;;;;;;;;;;;10.56;41.83;101761.88;4970908;28;19955;-81
2021/01/09 11:13:19;;;;;;;;;;;;;;;10.61;41.53;101751.22;4971576;28;20044;-81
2021/01/09 11:15:46;;;;;;;;;;;;;;;10.53;42.18;101758.38;4967344;28;19937;-81
2021/01/09 11:18:13;;;;;;;;;;;;;;;10.18;42.76;101749.00;4965724;28;19938;-81
2021/01/09 11:20:44;;;;;;;;;;;;;;;10.11;42.81;101756.13;4965559;28;20390;-82
2021/01/09 11:23:23;;;;;;;;;;;;;;;10.68;41.63;101760.84;4970067;28;19937;-82
2021/01/09 11:25:53;;;;;;;;;;;;;;;10.99;40.85;101760.47;4968401;28;19934;-81
2021/01/09 11:28:22;;;;;;;;;;;;;;;10.33;42.62;101761.22;4956408;28;19941;-81
2021/01/09 11:30:49;;;;;;;;;;;;;;;10.01;43.35;101762.38;4966369;28;20028;-82
2021/01/09 11:33:19;;;;;;;;;;;;;;;10.04;43.74;101757.06;4961256;28;19935;-81
2021/01/09 11:35:48;;;;;;;;;;;;;;;10.38;42.91;101760.28;4967439;28;19941;-80
2021/01/09 11:38:22;;;;;;;;;;;;;;;10.30;42.48;101764.75;4969118;28;19937;-81
2021/01/09 11:40:49;;;;;;;;;;;;;;;10.04;42.90;101763.22;4969101;28;20705;-81
2021/01/09 11:43:16;;;;;;;;;;;;;;;11.06;40.93;101769.22;4969259;28;20367;-81
2021/01/09 11:45:43;;;;;;;;;;;;;;;11.59;39.28;101764.06;4952947;28;19933;-81
2021/01/09 11:48:10;;;;;;;;;;;;;;;11.19;40.73;101770.81;4960914;28;20113;-80
2021/01/09 11:50:37;;;;;;;;;;;;;;;11.54;39.73;101769.41;4972434;28;19929;-81
2021/01/09 11:53:18;;;;;;;;;;;;;;;10.92;40.92;101764.97;4972031;28;19934;-81
2021/01/09 11:55:46;;;;;;;;;;;;;;;10.63;41.69;101763.53;4967614;28;20414;-80
2021/01/09 11:58:15;;;;;;;;;;;;;;;10.70;42.06;101766.13;4977584;28;19936;-80
2021/01/09 12:00:42;;;;;;;;;;;;;;;10.60;42.30;101768.00;4969349;28;19934;-81
2021/01/09 12:03:12;;;;;;;;;;;;;;;10.14;42.43;101764.03;4965686;28;19936;-81
2021/01/09 12:05:40;;;;;;;;;;;;;;;9.78;43.77;101768.72;4966848;28;19934;-80
2021/01/09 12:08:13;;;;;;;;;;;;;;;9.58;44.39;101777.69;4968325;28;20415;-82
2021/01/09 12:10:41;;;;;;;;;;;;;;;9.37;44.50;101773.41;4967527;28;20084;-81
2021/01/09 12:13:09;;;;;;;;;;;;;;;9.12;44.74;101778.81;4968971;28;19930;-82
2021/01/09 12:15:35;;;;;;;;;;;;;;;8.93;45.21;101778.03;4963692;28;19929;-82
2021/01/09 12:18:02;;;;;;;;;;;;;;;8.87;45.72;101769.28;4954788;28;19964;-80
2021/01/09 12:20:30;;;;;;;;;;;;;;;8.87;45.71;101775.41;4968992;28;19941;-80
2021/01/09 12:22:57;;;;;;;;;;;;;;;8.86;46.63;101778.94;4958713;28;20402;-81
2021/01/09 12:25:26;;;;;;;;;;;;;;;8.73;46.34;101783.41;4954469;28;19934;-80
2021/01/09 12:27:53;;;;;;;;;;;;;;;8.85;47.08;101781.59;4956293;28;20052;-78
2021/01/09 12:30:22;;;;;;;;;;;;;;;8.86;46.42;101783.34;4966471;28;19944;-79
2021/01/09 12:32:50;;;;;;;;;;;;;;;9.17;46.12;101781.47;4946519;28;20151;-79
2021/01/09 12:38:41;;;;;;;;;;;;;;;8.99;46.13;101773.63;4948800;28;20187;-79
2021/01/09 12:41:12;;;;;;;;;;;;;;;8.72;46.99;101784.28;4953169;28;20543;-79
2021/01/09 12:43:46;;;;;;;;;;;;;;;8.64;47.02;101779.03;4930779;28;20424;-79
2021/01/09 12:46:24;;;;;;;;;;;;;;;8.59;47.02;101780.78;4945381;28;19936;-81
2021/01/09 12:48:57;;;;;;;;;;;;;;;8.40;47.88;101790.47;4949645;28;19934;-81
2021/01/09 12:51:27;;;;;;;;;;;;;;;8.34;47.95;101790.50;4953500;28;20024;-82
2021/01/09 12:54:21;;;;;;;;;;;;;;;8.80;46.21;101793.03;4950354;28;19957;-79
2021/01/09 12:56:55;;;;;;;;;;;;;;;9.00;44.78;101800.00;4951361;28;19938;-80
2021/01/09 12:59:24;;;;;;;;;;;;;;;9.07;44.36;101793.81;4948891;28;20284;-79
2021/01/09 13:01:54;;;;;;;;;;;;;;;9.09;43.33;101799.09;4953629;28;19940;-80
2021/01/09 13:04:22;;;;;;;;;;;;;;;9.11;43.46;101802.59;4959628;28;19965;-77
2021/01/09 13:06:49;;;;;;;;;;;;;;;9.20;42.99;101799.91;4957142;28;21279;-80
2021/01/09 13:09:19;;;;;;;;;;;;;;;9.29;42.68;101794.59;4955501;28;19941;-80
2021/01/09 13:11:50;;;;;;;;;;;;;;;9.36;42.70;101791.91;4950724;28;20719;-80
2021/01/09 13:14:20;;;;;;;;;;;;;;;9.40;42.62;101793.66;4950279;28;19973;-79
2021/01/09 13:17:06;;;;;;;;;;;;;;;9.35;42.46;101795.44;4952191;28;21098;-80
2021/01/09 13:30:06;;;;;;;;;;;;;;;8.66;45.63;101805.41;5147083;23;19933;-78
2021/01/09 13:32:52;;;;;;;;;;;;;;;8.73;44.33;101812.44;4980388;28;22666;-78
2021/01/09 13:35:35;;;;;;;;;;;;;;;8.77;43.87;101811.53;5005591;28;20420;-80
2021/01/09 13:38:20;;;;;;;;;;;;;;;8.82;43.73;101813.28;4989604;28;19933;-80
2021/01/09 13:44:16;;;;;;;;;;;;;;;8.70;44.15;101814.19;4985424;28;20267;-79
2021/01/09 13:47:11;;;;;;;;;;;;;;;8.70;43.85;101820.31;4981121;28;19959;-79
2021/01/09 13:59:33;;;;;;;;;;;;;;;8.72;44.01;101825.59;5380839;23;19937;-78
2021/01/09 14:02:14;;;;;;;;;;;;;;;8.68;44.06;101824.75;4978002;28;19933;-79
2021/01/09 14:04:48;;;;;;;;;;;;;;;8.66;43.86;101823.84;4977112;28;19937;-79
2021/01/09 14:07:32;;;;;;;;;;;;;;;8.67;43.93;101825.63;4982690;28;19933;-79
2021/01/09 14:10:16;;;;;;;;;;;;;;;8.70;44.25;101824.75;4976643;28;20064;-80
2021/01/09 14:13:05;;;;;;;;;;;;;;;8.68;44.04;101832.66;4976458;28;19943;-79
2021/01/09 14:15:48;;;;;;;;;;;;;;;8.71;43.60;101837.91;4999878;28;19936;-78
2021/01/09 14:18:18;;;;;;;;;;;;;;;8.63;44.71;101832.66;4997550;28;19991;-77
2021/01/09 14:20:50;;;;;;;;;;;;;;;8.46;45.66;101845.00;4997221;28;20404;-78
2021/01/09 14:23:21;;;;;;;;;;;;;;;8.34;46.50;101850.22;4995677;28;19935;-78
2021/01/09 14:25:53;;;;;;;;;;;;;;;8.29;47.39;101856.38;4971405;28;19933;-78
2021/01/09 14:28:27;;;;;;;;;;;;;;;8.36;46.80;101851.13;4998923;28;20085;-80
2021/01/09 14:31:16;;;;;;;;;;;;;;;8.41;45.26;101850.22;5003268;28;21201;-77
2021/01/09 14:33:46;;;;;;;;;;;;;;;8.45;45.16;101853.75;4997659;28;20660;-80
2021/01/09 14:36:17;;;;;;;;;;;;;;;8.52;44.71;101854.66;4994354;28;19958;-79
2021/01/09 14:38:57;;;;;;;;;;;;;;;8.55;44.65;101852.91;4990513;28;19933;-79
2021/01/09 14:41:25;;;;;;;;;;;;;;;8.58;44.40;101855.53;4993941;28;19941;-77
2021/01/09 14:43:52;;;;;;;;;;;;;;;8.57;44.19;101850.25;4974999;28;19932;-77
2021/01/09 14:46:20;;;;;;;;;;;;;;;8.61;44.11;101860.78;4995016;28;19929;-78
2021/01/09 14:48:57;;;;;;;;;;;;;;;8.63;44.30;101860.81;4992540;28;20017;-78
2021/01/09 14:51:28;;;;;;;;;;;;;;;8.63;44.16;101859.03;4975806;28;19933;-78
2021/01/09 14:53:58;;;;;;;;;;;;;;;8.67;43.86;101865.19;4980322;28;19929;-78
2021/01/09 14:56:25;;;;;;;;;;;;;;;8.67;43.75;101862.56;4993570;28;20015;-78
2021/01/09 14:58:54;;;;;;;;;;;;;;;8.72;43.96;101859.88;5016320;28;20756;-78
2021/01/09 15:01:24;;;;;;;;;;;;;;;8.72;43.44;101855.50;4998994;28;20629;-78
2021/01/09 15:03:56;;;;;;;;;;;;;;;8.75;43.25;101865.19;4997586;28;20120;-78
2021/01/09 15:06:24;;;;;;;;;;;;;;;8.80;43.17;101864.28;5009205;28;19929;-78
2021/01/09 15:08:51;;;;;;;;;;;;;;;8.81;43.44;101867.78;4987878;28;19939;-77
2021/01/09 15:11:19;;;;;;;;;;;;;;;8.83;42.94;101875.72;4994110;28;19932;-77
2021/01/09 15:13:47;;;;;;;;;;;;;;;8.84;43.24;101873.06;5020636;28;19929;-77
2021/01/09 15:16:32;;;;;;;;;;;;;;;8.87;42.93;101877.47;5013387;28;20397;-77
2021/01/09 15:19:11;;;;;;;;;;;;;;;8.83;43.21;101883.63;5002079;28;19928;-77
2021/01/09 15:22:05;;;;;;;;;;;;;;;8.72;44.93;101892.44;5009634;28;19932;-78
2021/01/09 15:24:34;;;;;;;;;;;;;;;8.66;45.65;101894.22;5011917;28;19940;-76
2021/01/09 15:27:05;;;;;;;;;;;;;;;8.62;46.10;101893.34;4995786;28;20130;-77
2021/01/09 15:29:33;;;;;;;;;;;;;;;8.69;45.22;101899.47;5000278;28;19933;-77
2021/01/09 15:32:00;;;;;;;;;;;;;;;8.76;44.30;101906.50;5016770;28;20678;-78
2021/01/09 15:34:29;;;;;;;;;;;;;;;8.77;43.60;101900.34;4991043;28;19933;-78
2021/01/09 15:36:59;;;;;;;;;;;;;;;8.77;43.43;101903.88;4990855;28;19933;-77
2021/01/09 15:39:37;;;;;;;;;;;;;;;8.82;43.24;101898.56;5014507;28;19940;-81
2021/01/09 15:42:24;;;;;;;;;;;;;;;8.79;43.04;101902.09;5001085;28;19933;-80
2021/01/09 15:44:51;;;;;;;;;;;;;;;8.79;43.13;101907.38;5017095;28;19933;-77
2021/01/09 15:47:18;;;;;;;;;;;;;;;8.84;42.92;101910.03;5011288;28;19933;-78
2021/01/09 15:49:52;;;;;;;;;;;;;;;8.80;42.82;101911.78;5010143;28;20039;-77
2021/01/09 15:52:21;;;;;;;;;;;;;;;8.75;43.27;101910.91;5005679;28;19932;-78
2021/01/09 15:54:51;;;;;;;;;;;;;;;8.72;43.00;101921.47;5015009;28;19932;-78
2021/01/09 15:57:18;;;;;;;;;;;;;;;8.69;42.96;101916.19;5012971;28;20238;-79
2021/01/09 15:59:44;;;;;;;;;;;;;;;8.66;42.76;101912.69;5015469;28;19933;-77
2021/01/09 16:02:11;;;;;;;;;;;;;;;8.67;42.92;101920.59;5018584;28;19933;-77
2021/01/09 16:04:44;;;;;;;;;;;;;;;8.70;42.44;101914.44;4991354;28;19943;-79
2021/01/09 16:07:12;;;;;;;;;;;;;;;8.68;42.46;101917.09;5017707;28;20014;-79
2021/01/09 16:09:38;;;;;;;;;;;;;;;8.61;42.99;101907.41;5015011;28;20027;-77
2021/01/09 16:12:07;;;;;;;;;;;;;;;8.59;42.65;101912.69;5014236;28;20381;-78